sensor_id;sensor_type;location;lat;lon;timestamp;pressure;altitude;pressure_sealevel;temperature;humidity
72336;BME280;65062;48.446;8.834;2023-08-17T00:01:19;97704.00;;;18.99;100.00
72336;BME280;65062;48.446;8.834;2023-08-17T00:04:20;97699.28;;;19.01;100.00
72336;BME280;65062;48.446;8.834;2023-08-17T00:07:20;97693.41;;;18.99;100.00
72336;BME280;65062;48.446;8.834;2023-08-17T00:10:21;97699.19;;;18.96;100.00
72336;BME280;65062;48.446;8.834;2023-08-17T00:13:21;97686.63;;;18.91;100.00
72336;BME280;65062;48.446;8.834;2023-08-17T00:16:21;97693.63;;;18.97;100.00
72336;BME280;65062;48.446;8.834;2023-08-17T00:19:23;97696.63;;;19.01;100.00
72336;BME280;65062;48.446;8.834;2023-08-17T00:22:24;97700.69;;;18.92;100.00
72336;BME280;65062;48.446;8.834;2023-08-17T00:25:24;97686.88;;;18.90;100.00
72336;BME280;65062;48.446;8.834;2023-08-17T00:28:24;97689.75;;;18.88;100.00
72336;BME280;65062;48.446;8.834;2023-08-17T00:31:25;97690.44;;;18.84;100.00
72336;BME280;65062;48.446;8.834;2023-08-17T00:34:25;97685.16;;;18.84;100.00
72336;BME280;65062;48.446;8.834;2023-08-17T00:37:25;97674.41;;;18.79;100.00
72336;BME280;65062;48.446;8.834;2023-08-17T00:40:26;97671.75;;;18.79;100.00
72336;BME280;65062;48.446;8.834;2023-08-17T00:43:26;97678.13;;;18.78;100.00
72336;BME280;65062;48.446;8.834;2023-08-17T00:46:27;97680.09;;;18.71;100.00
72336;BME280;65062;48.446;8.834;2023-08-17T00:49:28;97682.59;;;18.77;100.00
72336;BME280;65062;48.446;8.834;2023-08-17T00:52:30;97685.72;;;18.74;100.00
72336;BME280;65062;48.446;8.834;2023-08-17T00:55:33;97676.97;;;18.74;100.00
72336;BME280;65062;48.446;8.834;2023-08-17T00:58:34;97677.53;;;18.76;100.00
72336;BME280;65062;48.446;8.834;2023-08-17T01:01:35;97671.91;;;18.72;100.00
72336;BME280;65062;48.446;8.834;2023-08-17T01:04:35;97665.91;;;18.65;100.00
72336;BME280;65062;48.446;8.834;2023-08-17T01:07:36;97672.00;;;18.65;100.00
72336;BME280;65062;48.446;8.834;2023-08-17T01:17:09;97670.06;;;18.61;100.00
72336;BME280;65062;48.446;8.834;2023-08-17T01:20:13;97679.75;;;18.55;100.00
72336;BME280;65062;48.446;8.834;2023-08-17T01:23:15;97677.78;;;18.51;100.00
72336;BME280;65062;48.446;8.834;2023-08-17T01:26:15;97685.38;;;18.47;100.00
72336;BME280;65062;48.446;8.834;2023-08-17T01:29:15;97686.06;;;18.43;100.00
72336;BME280;65062;48.446;8.834;2023-08-17T01:38:45;97679.97;;;18.42;100.00
72336;BME280;65062;48.446;8.834;2023-08-17T01:41:47;97671.22;;;18.42;100.00
72336;BME280;65062;48.446;8.834;2023-08-17T01:44:47;97670.50;;;18.35;100.00
72336;BME280;65062;48.446;8.834;2023-08-17T01:47:49;97679.47;;;18.34;100.00
72336;BME280;65062;48.446;8.834;2023-08-17T01:50:49;97680.19;;;18.29;100.00
72336;BME280;65062;48.446;8.834;2023-08-17T01:53:49;97681.56;;;18.32;100.00
72336;BME280;65062;48.446;8.834;2023-08-17T01:56:50;97686.63;;;18.33;100.00
72336;BME280;65062;48.446;8.834;2023-08-17T01:59:50;97679.22;;;18.24;100.00
72336;BME280;65062;48.446;8.834;2023-08-17T02:02:50;97680.84;;;18.25;100.00
72336;BME280;65062;48.446;8.834;2023-08-17T02:05:51;97673.47;;;18.27;100.00
72336;BME280;65062;48.446;8.834;2023-08-17T02:08:51;97682.47;;;18.26;100.00
72336;BME280;65062;48.446;8.834;2023-08-17T02:11:52;97676.81;;;18.22;100.00
72336;BME280;65062;48.446;8.834;2023-08-17T02:14:52;97671.28;;;18.24;100.00
72336;BME280;65062;48.446;8.834;2023-08-17T02:17:53;97668.16;;;18.27;100.00
72336;BME280;65062;48.446;8.834;2023-08-17T02:20:53;97662.78;;;18.22;100.00
72336;BME280;65062;48.446;8.834;2023-08-17T02:23:54;97658.03;;;18.24;100.00
72336;BME280;65062;48.446;8.834;2023-08-17T02:26:54;97655.50;;;18.29;100.00
72336;BME280;65062;48.446;8.834;2023-08-17T02:29:54;97654.69;;;18.28;100.00
72336;BME280;65062;48.446;8.834;2023-08-17T02:32:55;97657.13;;;18.30;100.00
72336;BME280;65062;48.446;8.834;2023-08-17T02:35:55;97651.75;;;18.36;100.00
72336;BME280;65062;48.446;8.834;2023-08-17T02:38:55;97652.72;;;18.35;100.00
72336;BME280;65062;48.446;8.834;2023-08-17T02:41:56;97643.19;;;18.34;100.00
72336;BME280;65062;48.446;8.834;2023-08-17T02:44:56;97644.91;;;18.29;100.00
72336;BME280;65062;48.446;8.834;2023-08-17T02:47:57;97638.47;;;18.25;100.00
72336;BME280;65062;48.446;8.834;2023-08-17T02:50:57;97644.78;;;18.24;100.00
72336;BME280;65062;48.446;8.834;2023-08-17T02:53:57;97641.91;;;18.25;100.00
72336;BME280;65062;48.446;8.834;2023-08-17T02:56:59;97639.72;;;18.22;100.00
72336;BME280;65062;48.446;8.834;2023-08-17T03:00:00;97635.91;;;18.18;100.00
72336;BME280;65062;48.446;8.834;2023-08-17T03:03:00;97635.31;;;18.16;100.00
72336;BME280;65062;48.446;8.834;2023-08-17T03:06:02;97631.88;;;18.16;100.00
72336;BME280;65062;48.446;8.834;2023-08-17T03:09:03;97633.38;;;18.12;100.00
72336;BME280;65062;48.446;8.834;2023-08-17T03:12:03;97623.72;;;18.06;100.00
72336;BME280;65062;48.446;8.834;2023-08-17T03:15:05;97614.72;;;18.07;100.00
72336;BME280;65062;48.446;8.834;2023-08-17T03:18:06;97613.81;;;18.01;100.00
72336;BME280;65062;48.446;8.834;2023-08-17T03:21:06;97611.16;;;18.01;100.00
72336;BME280;65062;48.446;8.834;2023-08-17T03:24:07;97613.44;;;17.98;100.00
72336;BME280;65062;48.446;8.834;2023-08-17T03:27:07;97616.31;;;17.96;100.00
72336;BME280;65062;48.446;8.834;2023-08-17T03:30:08;97615.72;;;17.94;100.00
72336;BME280;65062;48.446;8.834;2023-08-17T03:33:08;97613.66;;;17.96;100.00
72336;BME280;65062;48.446;8.834;2023-08-17T03:36:09;97615.16;;;17.92;100.00
72336;BME280;65062;48.446;8.834;2023-08-17T03:39:09;97612.75;;;17.91;100.00
72336;BME280;65062;48.446;8.834;2023-08-17T03:42:10;97608.84;;;17.93;100.00
72336;BME280;65062;48.446;8.834;2023-08-17T03:45:10;97611.13;;;17.90;100.00
72336;BME280;65062;48.446;8.834;2023-08-17T03:48:11;97606.28;;;17.87;100.00
72336;BME280;65062;48.446;8.834;2023-08-17T03:51:12;97611.34;;;17.88;100.00
72336;BME280;65062;48.446;8.834;2023-08-17T03:54:12;97614.81;;;17.89;100.00
72336;BME280;65062;48.446;8.834;2023-08-17T03:57:13;97609.75;;;17.87;100.00
72336;BME280;65062;48.446;8.834;2023-08-17T04:00:13;97613.19;;;17.88;100.00
72336;BME280;65062;48.446;8.834;2023-08-17T04:03:14;97613.06;;;17.83;100.00
72336;BME280;65062;48.446;8.834;2023-08-17T04:06:14;97612.50;;;17.81;100.00
72336;BME280;65062;48.446;8.834;2023-08-17T04:09:15;97619.41;;;17.82;100.00
72336;BME280;65062;48.446;8.834;2023-08-17T04:12:15;97623.31;;;17.79;100.00
72336;BME280;65062;48.446;8.834;2023-08-17T04:15:15;97633.56;;;17.76;100.00
72336;BME280;65062;48.446;8.834;2023-08-17T04:18:16;97632.41;;;17.72;100.00
72336;BME280;65062;48.446;8.834;2023-08-17T04:21:16;97635.59;;;17.62;100.00
72336;BME280;65062;48.446;8.834;2023-08-17T04:24:17;97635.03;;;17.60;100.00
72336;BME280;65062;48.446;8.834;2023-08-17T04:27:17;97633.97;;;17.61;100.00
72336;BME280;65062;48.446;8.834;2023-08-17T04:30:17;97631.34;;;17.61;100.00
72336;BME280;65062;48.446;8.834;2023-08-17T04:33:18;97636.63;;;17.61;100.00
72336;BME280;65062;48.446;8.834;2023-08-17T04:36:18;97634.53;;;17.63;100.00
72336;BME280;65062;48.446;8.834;2023-08-17T04:39:18;97634.69;;;17.68;100.00
72336;BME280;65062;48.446;8.834;2023-08-17T04:42:19;97636.06;;;17.71;100.00
72336;BME280;65062;48.446;8.834;2023-08-17T04:45:20;97642.41;;;17.81;100.00
72336;BME280;65062;48.446;8.834;2023-08-17T04:48:20;97641.63;;;17.81;100.00
72336;BME280;65062;48.446;8.834;2023-08-17T04:51:20;97650.13;;;17.83;100.00
72336;BME280;65062;48.446;8.834;2023-08-17T04:54:21;97645.53;;;17.90;100.00
72336;BME280;65062;48.446;8.834;2023-08-17T04:57:21;97642.34;;;17.99;100.00
72336;BME280;65062;48.446;8.834;2023-08-17T05:00:22;97649.38;;;18.05;100.00
72336;BME280;65062;48.446;8.834;2023-08-17T05:03:27;97656.28;;;18.06;100.00
72336;BME280;65062;48.446;8.834;2023-08-17T05:06:28;97650.53;;;18.09;100.00
72336;BME280;65062;48.446;8.834;2023-08-17T05:09:29;97652.94;;;18.11;100.00
72336;BME280;65062;48.446;8.834;2023-08-17T05:12:30;97650.88;;;18.13;100.00
72336;BME280;65062;48.446;8.834;2023-08-17T05:15:31;97649.63;;;18.15;100.00
72336;BME280;65062;48.446;8.834;2023-08-17T05:18:31;97645.00;;;18.22;100.00
72336;BME280;65062;48.446;8.834;2023-08-17T05:21:31;97653.09;;;18.27;100.00
72336;BME280;65062;48.446;8.834;2023-08-17T05:24:32;97645.72;;;18.29;100.00
72336;BME280;65062;48.446;8.834;2023-08-17T05:27:32;97651.13;;;18.34;100.00
72336;BME280;65062;48.446;8.834;2023-08-17T05:30:33;97654.22;;;18.31;100.00
72336;BME280;65062;48.446;8.834;2023-08-17T05:33:33;97656.13;;;18.42;100.00
72336;BME280;65062;48.446;8.834;2023-08-17T05:36:33;97657.84;;;18.37;100.00
72336;BME280;65062;48.446;8.834;2023-08-17T05:39:34;97657.63;;;18.50;100.00
72336;BME280;65062;48.446;8.834;2023-08-17T05:42:34;97657.13;;;18.53;100.00
72336;BME280;65062;48.446;8.834;2023-08-17T05:45:35;97665.09;;;18.64;100.00
72336;BME280;65062;48.446;8.834;2023-08-17T05:48:37;97661.38;;;18.77;100.00
72336;BME280;65062;48.446;8.834;2023-08-17T05:51:37;97669.91;;;18.91;100.00
72336;BME280;65062;48.446;8.834;2023-08-17T05:54:37;97669.75;;;18.97;100.00
72336;BME280;65062;48.446;8.834;2023-08-17T05:57:38;97674.38;;;19.13;99.88
72336;BME280;65062;48.446;8.834;2023-08-17T06:00:38;97675.50;;;19.17;96.47
72336;BME280;65062;48.446;8.834;2023-08-17T06:03:38;97680.47;;;19.14;98.12
72336;BME280;65062;48.446;8.834;2023-08-17T06:06:39;97675.38;;;19.35;97.40
72336;BME280;65062;48.446;8.834;2023-08-17T06:09:39;97676.81;;;19.54;97.23
72336;BME280;65062;48.446;8.834;2023-08-17T06:12:40;97683.91;;;19.65;96.74
72336;BME280;65062;48.446;8.834;2023-08-17T06:15:40;97681.19;;;19.77;96.44
72336;BME280;65062;48.446;8.834;2023-08-17T06:18:41;97683.19;;;19.70;94.23
72336;BME280;65062;48.446;8.834;2023-08-17T06:21:41;97683.22;;;19.86;93.66
72336;BME280;65062;48.446;8.834;2023-08-17T06:24:42;97683.78;;;20.05;93.08
72336;BME280;65062;48.446;8.834;2023-08-17T06:27:42;97683.31;;;20.08;93.05
72336;BME280;65062;48.446;8.834;2023-08-17T06:30:44;97682.44;;;20.02;91.68
72336;BME280;65062;48.446;8.834;2023-08-17T06:33:44;97681.63;;;20.02;90.53
72336;BME280;65062;48.446;8.834;2023-08-17T06:36:56;97685.63;;;19.88;91.89
72336;BME280;65062;48.446;8.834;2023-08-17T06:39:57;97686.66;;;20.15;92.62
72336;BME280;65062;48.446;8.834;2023-08-17T06:42:57;97681.19;;;20.38;90.88
72336;BME280;65062;48.446;8.834;2023-08-17T06:45:58;97676.13;;;20.53;89.19
72336;BME280;65062;48.446;8.834;2023-08-17T06:49:00;97676.53;;;20.83;88.18
72336;BME280;65062;48.446;8.834;2023-08-17T06:52:00;97676.28;;;21.01;88.28
72336;BME280;65062;48.446;8.834;2023-08-17T06:55:01;97676.50;;;21.21;87.66
72336;BME280;65062;48.446;8.834;2023-08-17T06:58:01;97679.63;;;21.35;87.42
72336;BME280;65062;48.446;8.834;2023-08-17T07:01:01;97677.75;;;21.35;86.14
72336;BME280;65062;48.446;8.834;2023-08-17T07:04:02;97674.75;;;21.53;85.17
72336;BME280;65062;48.446;8.834;2023-08-17T07:07:02;97677.28;;;21.86;83.59
72336;BME280;65062;48.446;8.834;2023-08-17T07:10:03;97667.00;;;22.00;82.58
72336;BME280;65062;48.446;8.834;2023-08-17T07:13:03;97675.88;;;22.10;83.95
72336;BME280;65062;48.446;8.834;2023-08-17T07:16:04;97679.94;;;22.18;81.86
72336;BME280;65062;48.446;8.834;2023-08-17T07:19:04;97677.88;;;22.25;83.28
72336;BME280;65062;48.446;8.834;2023-08-17T07:22:04;97678.66;;;22.25;80.67
72336;BME280;65062;48.446;8.834;2023-08-17T07:25:04;97676.75;;;22.21;82.41
72336;BME280;65062;48.446;8.834;2023-08-17T07:28:05;97680.81;;;22.28;81.24
72336;BME280;65062;48.446;8.834;2023-08-17T07:31:05;97673.16;;;22.37;81.48
72336;BME280;65062;48.446;8.834;2023-08-17T07:34:06;97673.59;;;22.24;81.43
72336;BME280;65062;48.446;8.834;2023-08-17T07:37:06;97678.50;;;22.37;81.56
72336;BME280;65062;48.446;8.834;2023-08-17T07:40:07;97674.66;;;22.54;81.41
72336;BME280;65062;48.446;8.834;2023-08-17T07:43:08;97679.50;;;22.63;81.65
72336;BME280;65062;48.446;8.834;2023-08-17T07:46:08;97683.56;;;22.70;80.39
72336;BME280;65062;48.446;8.834;2023-08-17T07:49:09;97682.19;;;22.63;80.41
72336;BME280;65062;48.446;8.834;2023-08-17T07:52:09;97683.63;;;22.43;82.30
72336;BME280;65062;48.446;8.834;2023-08-17T07:55:10;97683.06;;;22.78;80.59
72336;BME280;65062;48.446;8.834;2023-08-17T07:58:11;97682.44;;;23.03;77.72
72336;BME280;65062;48.446;8.834;2023-08-17T08:01:12;97682.75;;;23.16;78.37
72336;BME280;65062;48.446;8.834;2023-08-17T08:04:12;97678.31;;;23.32;77.52
72336;BME280;65062;48.446;8.834;2023-08-17T08:07:12;97677.34;;;23.63;76.82
72336;BME280;65062;48.446;8.834;2023-08-17T08:10:13;97689.63;;;23.64;76.23
72336;BME280;65062;48.446;8.834;2023-08-17T08:13:13;97692.09;;;23.90;77.12
72336;BME280;65062;48.446;8.834;2023-08-17T08:16:14;97695.63;;;24.01;76.37
72336;BME280;65062;48.446;8.834;2023-08-17T08:19:14;97686.00;;;24.35;74.02
72336;BME280;65062;48.446;8.834;2023-08-17T08:22:15;97683.06;;;24.77;72.48
72336;BME280;65062;48.446;8.834;2023-08-17T08:25:15;97675.50;;;24.89;72.05
72336;BME280;65062;48.446;8.834;2023-08-17T08:28:16;97674.91;;;25.17;70.05
72336;BME280;65062;48.446;8.834;2023-08-17T08:31:16;97673.84;;;25.18;70.52
72336;BME280;65062;48.446;8.834;2023-08-17T08:34:16;97678.31;;;25.37;70.63
72336;BME280;65062;48.446;8.834;2023-08-17T08:37:17;97678.69;;;25.06;69.68
72336;BME280;65062;48.446;8.834;2023-08-17T08:40:17;97674.63;;;25.18;70.25
72336;BME280;65062;48.446;8.834;2023-08-17T08:43:18;97674.88;;;25.22;69.33
72336;BME280;65062;48.446;8.834;2023-08-17T08:46:20;97672.47;;;25.15;70.66
72336;BME280;65062;48.446;8.834;2023-08-17T08:49:23;97677.28;;;25.23;68.50
72336;BME280;65062;48.446;8.834;2023-08-17T08:52:31;97670.88;;;25.19;69.71
72336;BME280;65062;48.446;8.834;2023-08-17T08:55:41;97673.03;;;25.12;69.86
72336;BME280;65062;48.446;8.834;2023-08-17T08:58:44;97680.09;;;24.88;71.15
72336;BME280;65062;48.446;8.834;2023-08-17T09:01:47;97676.84;;;25.01;72.02
72336;BME280;65062;48.446;8.834;2023-08-17T09:04:47;97674.72;;;24.88;70.86
72336;BME280;65062;48.446;8.834;2023-08-17T09:07:49;97682.75;;;24.83;71.81
72336;BME280;65062;48.446;8.834;2023-08-17T09:10:50;97675.84;;;24.67;72.09
72336;BME280;65062;48.446;8.834;2023-08-17T09:13:52;97673.69;;;24.74;72.64
72336;BME280;65062;48.446;8.834;2023-08-17T09:16:53;97670.47;;;24.67;72.68
72336;BME280;65062;48.446;8.834;2023-08-17T09:19:54;97668.59;;;24.47;73.81
72336;BME280;65062;48.446;8.834;2023-08-17T09:22:54;97672.38;;;24.36;75.59
72336;BME280;65062;48.446;8.834;2023-08-17T09:26:08;97658.16;;;24.46;74.85
72336;BME280;65062;48.446;8.834;2023-08-17T09:29:18;97664.56;;;24.55;74.19
72336;BME280;65062;48.446;8.834;2023-08-17T09:32:19;97656.81;;;24.84;74.17
72336;BME280;65062;48.446;8.834;2023-08-17T09:35:19;97650.84;;;25.02;73.66
72336;BME280;65062;48.446;8.834;2023-08-17T09:38:20;97647.78;;;25.38;73.32
72336;BME280;65062;48.446;8.834;2023-08-17T09:41:20;97642.78;;;25.65;72.20
72336;BME280;65062;48.446;8.834;2023-08-17T09:44:21;97638.09;;;25.86;70.98
72336;BME280;65062;48.446;8.834;2023-08-17T09:47:22;97633.47;;;25.96;70.42
72336;BME280;65062;48.446;8.834;2023-08-17T09:50:23;97627.81;;;26.03;69.61
72336;BME280;65062;48.446;8.834;2023-08-17T09:53:23;97628.59;;;26.03;70.12
72336;BME280;65062;48.446;8.834;2023-08-17T09:56:26;97624.88;;;25.94;71.36
72336;BME280;65062;48.446;8.834;2023-08-17T09:59:27;97620.47;;;26.13;70.96
72336;BME280;65062;48.446;8.834;2023-08-17T10:02:28;97631.03;;;26.33;69.69
72336;BME280;65062;48.446;8.834;2023-08-17T10:05:32;97623.47;;;26.40;67.22
72336;BME280;65062;48.446;8.834;2023-08-17T10:08:42;97620.97;;;26.49;67.62
72336;BME280;65062;48.446;8.834;2023-08-17T10:11:45;97621.75;;;26.78;67.73
72336;BME280;65062;48.446;8.834;2023-08-17T10:14:49;97615.88;;;27.00;66.96
72336;BME280;65062;48.446;8.834;2023-08-17T10:18:15;97626.06;;;27.03;64.99
72336;BME280;65062;48.446;8.834;2023-08-17T10:24:40;97624.53;;;27.39;64.22
72336;BME280;65062;48.446;8.834;2023-08-17T10:27:41;97625.81;;;27.65;64.34
72336;BME280;65062;48.446;8.834;2023-08-17T10:30:42;97629.22;;;27.89;64.22
72336;BME280;65062;48.446;8.834;2023-08-17T10:33:44;97629.81;;;28.18;62.12
72336;BME280;65062;48.446;8.834;2023-08-17T10:36:48;97628.25;;;28.49;61.76
72336;BME280;65062;48.446;8.834;2023-08-17T10:39:49;97614.25;;;28.93;60.90
72336;BME280;65062;48.446;8.834;2023-08-17T10:42:53;97618.25;;;29.58;58.22
72336;BME280;65062;48.446;8.834;2023-08-17T10:45:53;97604.44;;;30.31;56.73
72336;BME280;65062;48.446;8.834;2023-08-17T10:48:53;97603.75;;;30.78;52.85
72336;BME280;65062;48.446;8.834;2023-08-17T10:52:06;97606.16;;;30.88;52.39
72336;BME280;65062;48.446;8.834;2023-08-17T10:55:08;97607.75;;;31.28;51.95
72336;BME280;65062;48.446;8.834;2023-08-17T10:58:12;97601.06;;;31.34;51.15
72336;BME280;65062;48.446;8.834;2023-08-17T11:01:12;97611.09;;;31.42;49.72
72336;BME280;65062;48.446;8.834;2023-08-17T11:04:17;97605.72;;;31.93;49.25
72336;BME280;65062;48.446;8.834;2023-08-17T11:07:18;97607.47;;;32.14;48.32
72336;BME280;65062;48.446;8.834;2023-08-17T11:13:18;97604.91;;;32.90;47.54
72336;BME280;65062;48.446;8.834;2023-08-17T11:16:19;97595.44;;;33.04;47.34
72336;BME280;65062;48.446;8.834;2023-08-17T11:19:20;97596.63;;;33.15;45.41
72336;BME280;65062;48.446;8.834;2023-08-17T11:22:21;97593.78;;;33.12;46.45
72336;BME280;65062;48.446;8.834;2023-08-17T11:25:22;97586.63;;;33.36;44.48
72336;BME280;65062;48.446;8.834;2023-08-17T11:28:23;97585.59;;;33.49;43.75
72336;BME280;65062;48.446;8.834;2023-08-17T11:31:25;97587.97;;;33.71;39.76
72336;BME280;65062;48.446;8.834;2023-08-17T11:34:25;97580.16;;;33.90;40.62
72336;BME280;65062;48.446;8.834;2023-08-17T11:37:26;97582.03;;;33.37;40.26
72336;BME280;65062;48.446;8.834;2023-08-17T11:40:27;97575.81;;;33.28;40.45
72336;BME280;65062;48.446;8.834;2023-08-17T11:43:28;97573.44;;;32.60;39.98
72336;BME280;65062;48.446;8.834;2023-08-17T11:46:28;97579.38;;;32.91;43.75
72336;BME280;65062;48.446;8.834;2023-08-17T11:49:30;97574.84;;;32.66;44.68
72336;BME280;65062;48.446;8.834;2023-08-17T11:52:31;97569.84;;;32.22;43.43
72336;BME280;65062;48.446;8.834;2023-08-17T11:55:33;97576.91;;;31.63;46.13
72336;BME280;65062;48.446;8.834;2023-08-17T11:58:51;97587.56;;;30.95;46.60
72336;BME280;65062;48.446;8.834;2023-08-17T12:01:52;97603.84;;;30.42;47.02
72336;BME280;65062;48.446;8.834;2023-08-17T12:04:54;97614.66;;;29.98;51.49
72336;BME280;65062;48.446;8.834;2023-08-17T12:07:55;97617.44;;;29.71;54.73
72336;BME280;65062;48.446;8.834;2023-08-17T12:10:55;97638.09;;;29.40;56.24
72336;BME280;65062;48.446;8.834;2023-08-17T12:13:56;97648.47;;;28.92;60.52
72336;BME280;65062;48.446;8.834;2023-08-17T12:16:57;97659.19;;;28.65;61.45
72336;BME280;65062;48.446;8.834;2023-08-17T12:19:58;97655.75;;;28.46;62.13
72336;BME280;65062;48.446;8.834;2023-08-17T12:22:59;97649.13;;;28.06;63.47
72336;BME280;65062;48.446;8.834;2023-08-17T12:25:59;97639.28;;;27.78;64.87
72336;BME280;65062;48.446;8.834;2023-08-17T12:29:00;97627.84;;;27.54;67.72
72336;BME280;65062;48.446;8.834;2023-08-17T12:32:04;97619.16;;;27.39;67.17
72336;BME280;65062;48.446;8.834;2023-08-17T12:35:04;97609.25;;;26.92;71.04
72336;BME280;65062;48.446;8.834;2023-08-17T12:38:05;97603.72;;;26.84;73.04
72336;BME280;65062;48.446;8.834;2023-08-17T12:41:05;97605.81;;;26.63;72.08
72336;BME280;65062;48.446;8.834;2023-08-17T12:44:05;97597.03;;;26.52;72.42
72336;BME280;65062;48.446;8.834;2023-08-17T12:47:06;97591.81;;;26.37;74.67
72336;BME280;65062;48.446;8.834;2023-08-17T12:50:06;97593.56;;;26.23;73.70
72336;BME280;65062;48.446;8.834;2023-08-17T12:53:06;97596.47;;;25.98;75.14
72336;BME280;65062;48.446;8.834;2023-08-17T12:56:07;97599.78;;;25.85;76.28
72336;BME280;65062;48.446;8.834;2023-08-17T12:59:07;97612.16;;;25.76;74.92
72336;BME280;65062;48.446;8.834;2023-08-17T13:02:07;97619.50;;;25.61;76.65
72336;BME280;65062;48.446;8.834;2023-08-17T13:05:08;97629.47;;;25.55;76.11
72336;BME280;65062;48.446;8.834;2023-08-17T13:08:08;97630.84;;;25.48;78.47
72336;BME280;65062;48.446;8.834;2023-08-17T13:11:10;97632.25;;;25.25;78.67
72336;BME280;65062;48.446;8.834;2023-08-17T13:14:14;97629.94;;;25.09;78.48
72336;BME280;65062;48.446;8.834;2023-08-17T13:17:14;97623.31;;;24.91;79.02
72336;BME280;65062;48.446;8.834;2023-08-17T13:20:17;97624.63;;;24.94;78.95
72336;BME280;65062;48.446;8.834;2023-08-17T13:23:17;97618.22;;;24.90;80.12
72336;BME280;65062;48.446;8.834;2023-08-17T13:26:17;97617.41;;;24.89;81.01
72336;BME280;65062;48.446;8.834;2023-08-17T13:29:18;97612.88;;;24.90;81.94
72336;BME280;65062;48.446;8.834;2023-08-17T13:32:19;97598.66;;;24.94;80.60
72336;BME280;65062;48.446;8.834;2023-08-17T13:35:19;97601.25;;;25.09;80.56
72336;BME280;65062;48.446;8.834;2023-08-17T13:38:20;97589.06;;;25.42;80.23
72336;BME280;65062;48.446;8.834;2023-08-17T13:41:20;97591.28;;;25.73;79.53
72336;BME280;65062;48.446;8.834;2023-08-17T13:44:20;97589.84;;;26.19;77.22
72336;BME280;65062;48.446;8.834;2023-08-17T13:47:21;97589.00;;;26.52;75.59
72336;BME280;65062;48.446;8.834;2023-08-17T13:50:21;97585.31;;;26.96;73.88
72336;BME280;65062;48.446;8.834;2023-08-17T13:53:22;97578.47;;;27.03;72.77
72336;BME280;65062;48.446;8.834;2023-08-17T13:56:22;97583.78;;;26.90;71.50
72336;BME280;65062;48.446;8.834;2023-08-17T13:59:22;97584.75;;;26.99;70.18
72336;BME280;65062;48.446;8.834;2023-08-17T14:02:23;97598.53;;;27.53;66.78
72336;BME280;65062;48.446;8.834;2023-08-17T14:05:23;97600.34;;;27.76;68.22
72336;BME280;65062;48.446;8.834;2023-08-17T14:08:23;97591.03;;;28.05;66.54
72336;BME280;65062;48.446;8.834;2023-08-17T14:11:24;97599.91;;;28.19;65.71
72336;BME280;65062;48.446;8.834;2023-08-17T14:14:24;97585.03;;;28.40;63.89
72336;BME280;65062;48.446;8.834;2023-08-17T14:17:24;97571.91;;;29.07;62.79
72336;BME280;65062;48.446;8.834;2023-08-17T14:20:25;97559.75;;;30.02;57.96
72336;BME280;65062;48.446;8.834;2023-08-17T14:23:26;97542.69;;;31.84;51.56
72336;BME280;65062;48.446;8.834;2023-08-17T14:26:26;97539.47;;;35.43;45.37
72336;BME280;65062;48.446;8.834;2023-08-17T14:29:26;97530.69;;;38.21;35.19
72336;BME280;65062;48.446;8.834;2023-08-17T14:32:28;97538.53;;;39.72;31.54
72336;BME280;65062;48.446;8.834;2023-08-17T14:35:29;97533.50;;;42.69;28.38
72336;BME280;65062;48.446;8.834;2023-08-17T14:38:29;97530.13;;;43.76;24.82
72336;BME280;65062;48.446;8.834;2023-08-17T14:41:29;97525.59;;;42.92;26.71
72336;BME280;65062;48.446;8.834;2023-08-17T14:44:32;97527.44;;;43.59;25.74
72336;BME280;65062;48.446;8.834;2023-08-17T14:47:32;97522.06;;;42.78;25.96
72336;BME280;65062;48.446;8.834;2023-08-17T14:50:36;97514.56;;;42.33;25.83
72336;BME280;65062;48.446;8.834;2023-08-17T14:53:37;97515.03;;;40.88;28.40
72336;BME280;65062;48.446;8.834;2023-08-17T14:56:37;97516.06;;;39.60;29.64
72336;BME280;65062;48.446;8.834;2023-08-17T14:59:37;97516.94;;;40.77;29.40
72336;BME280;65062;48.446;8.834;2023-08-17T15:02:38;97513.81;;;40.82;27.52
72336;BME280;65062;48.446;8.834;2023-08-17T15:05:38;97508.91;;;40.58;29.26
72336;BME280;65062;48.446;8.834;2023-08-17T15:08:38;97510.38;;;40.08;29.51
72336;BME280;65062;48.446;8.834;2023-08-17T15:11:39;97521.38;;;41.53;27.21
72336;BME280;65062;48.446;8.834;2023-08-17T15:14:39;97528.16;;;41.08;26.90
72336;BME280;65062;48.446;8.834;2023-08-17T15:17:40;97532.56;;;40.73;28.27
72336;BME280;65062;48.446;8.834;2023-08-17T15:20:40;97529.72;;;40.22;29.67
72336;BME280;65062;48.446;8.834;2023-08-17T15:23:41;97535.97;;;40.19;28.25
72336;BME280;65062;48.446;8.834;2023-08-17T15:26:41;97532.53;;;40.66;27.94
72336;BME280;65062;48.446;8.834;2023-08-17T15:29:42;97543.25;;;39.16;28.66
72336;BME280;65062;48.446;8.834;2023-08-17T15:32:42;97547.09;;;36.48;34.54
72336;BME280;65062;48.446;8.834;2023-08-17T15:35:42;97540.22;;;35.56;36.84
72336;BME280;65062;48.446;8.834;2023-08-17T15:38:43;97541.09;;;35.72;36.56
72336;BME280;65062;48.446;8.834;2023-08-17T15:41:43;97540.66;;;34.94;38.10
72336;BME280;65062;48.446;8.834;2023-08-17T15:44:43;97542.50;;;34.34;39.34
72336;BME280;65062;48.446;8.834;2023-08-17T15:47:44;97529.06;;;35.09;37.79
72336;BME280;65062;48.446;8.834;2023-08-17T15:50:44;97531.78;;;36.01;35.85
72336;BME280;65062;48.446;8.834;2023-08-17T15:53:45;97529.16;;;36.20;36.03
72336;BME280;65062;48.446;8.834;2023-08-17T15:56:45;97532.31;;;36.96;33.77
72336;BME280;65062;48.446;8.834;2023-08-17T15:59:45;97529.41;;;37.96;33.06
72336;BME280;65062;48.446;8.834;2023-08-17T16:02:50;97517.34;;;38.61;31.04
72336;BME280;65062;48.446;8.834;2023-08-17T16:05:50;97500.53;;;39.11;29.39
72336;BME280;65062;48.446;8.834;2023-08-17T16:08:50;97498.84;;;37.52;32.50
72336;BME280;65062;48.446;8.834;2023-08-17T16:11:53;97497.44;;;35.56;36.29
72336;BME280;65062;48.446;8.834;2023-08-17T16:14:53;97512.97;;;34.44;37.95